sensor_id;sensor_type;location;lat;lon;timestamp;temperature;humidity
35491;DHT22;21605;52.068;20.806;2023-11-18T00:00:31;2.70;99.90
35491;DHT22;21605;52.068;20.806;2023-11-18T00:02:57;2.70;99.90
35491;DHT22;21605;52.068;20.806;2023-11-18T00:05:22;2.60;99.90
35491;DHT22;21605;52.068;20.806;2023-11-18T00:07:49;2.60;99.90
35491;DHT22;21605;52.068;20.806;2023-11-18T00:10:15;2.70;99.90
35491;DHT22;21605;52.068;20.806;2023-11-18T00:12:41;2.60;99.90
35491;DHT22;21605;52.068;20.806;2023-11-18T00:15:07;2.70;99.90
35491;DHT22;21605;52.068;20.806;2023-11-18T00:17:37;2.60;99.90
35491;DHT22;21605;52.068;20.806;2023-11-18T00:20:03;2.60;99.90
35491;DHT22;21605;52.068;20.806;2023-11-18T00:22:35;2.60;99.90
35491;DHT22;21605;52.068;20.806;2023-11-18T00:25:01;2.70;99.90
35491;DHT22;21605;52.068;20.806;2023-11-18T00:27:27;2.70;99.90
35491;DHT22;21605;52.068;20.806;2023-11-18T00:29:52;2.70;99.90
35491;DHT22;21605;52.068;20.806;2023-11-18T00:32:18;2.70;99.90
35491;DHT22;21605;52.068;20.806;2023-11-18T00:34:44;2.60;99.90
35491;DHT22;21605;52.068;20.806;2023-11-18T00:37:10;2.70;99.90
35491;DHT22;21605;52.068;20.806;2023-11-18T00:39:35;2.60;99.90
35491;DHT22;21605;52.068;20.806;2023-11-18T00:42:02;2.60;99.90
35491;DHT22;21605;52.068;20.806;2023-11-18T00:44:28;2.60;99.90
35491;DHT22;21605;52.068;20.806;2023-11-18T00:46:54;2.60;99.90
35491;DHT22;21605;52.068;20.806;2023-11-18T00:49:19;2.60;99.90
35491;DHT22;21605;52.068;20.806;2023-11-18T00:51:45;2.60;99.90
35491;DHT22;21605;52.068;20.806;2023-11-18T00:54:11;2.60;99.90
35491;DHT22;21605;52.068;20.806;2023-11-18T00:56:37;2.60;99.90
35491;DHT22;21605;52.068;20.806;2023-11-18T00:59:03;2.60;99.90
35491;DHT22;21605;52.068;20.806;2023-11-18T01:01:29;2.60;99.90
35491;DHT22;21605;52.068;20.806;2023-11-18T01:03:55;2.60;99.90
35491;DHT22;21605;52.068;20.806;2023-11-18T01:06:27;2.60;99.90
35491;DHT22;21605;52.068;20.806;2023-11-18T01:08:53;2.60;99.90
35491;DHT22;21605;52.068;20.806;2023-11-18T01:11:19;2.60;99.90
35491;DHT22;21605;52.068;20.806;2023-11-18T01:13:51;2.60;99.90
35491;DHT22;21605;52.068;20.806;2023-11-18T01:16:16;2.60;99.90
35491;DHT22;21605;52.068;20.806;2023-11-18T01:18:42;2.60;99.90
35491;DHT22;21605;52.068;20.806;2023-11-18T01:21:08;2.60;99.90
35491;DHT22;21605;52.068;20.806;2023-11-18T01:23:38;2.60;99.90
35491;DHT22;21605;52.068;20.806;2023-11-18T01:26:07;2.50;99.90
35491;DHT22;21605;52.068;20.806;2023-11-18T01:28:36;2.60;99.90
35491;DHT22;21605;52.068;20.806;2023-11-18T01:31:03;2.60;99.90
35491;DHT22;21605;52.068;20.806;2023-11-18T01:33:29;2.60;99.90
35491;DHT22;21605;52.068;20.806;2023-11-18T01:35:55;2.60;99.90
35491;DHT22;21605;52.068;20.806;2023-11-18T01:38:21;2.60;99.90
35491;DHT22;21605;52.068;20.806;2023-11-18T01:40:46;2.60;99.90
35491;DHT22;21605;52.068;20.806;2023-11-18T01:43:12;2.60;99.90
35491;DHT22;21605;52.068;20.806;2023-11-18T01:45:40;2.50;99.90
35491;DHT22;21605;52.068;20.806;2023-11-18T01:48:07;2.60;99.90
35491;DHT22;21605;52.068;20.806;2023-11-18T01:50:38;2.60;99.90
35491;DHT22;21605;52.068;20.806;2023-11-18T01:53:04;2.50;99.90
35491;DHT22;21605;52.068;20.806;2023-11-18T01:55:31;2.50;99.90
35491;DHT22;21605;52.068;20.806;2023-11-18T01:57:57;2.60;99.90
35491;DHT22;21605;52.068;20.806;2023-11-18T02:00:24;2.60;99.90
35491;DHT22;21605;52.068;20.806;2023-11-18T02:02:50;2.60;99.90
35491;DHT22;21605;52.068;20.806;2023-11-18T02:05:15;2.50;99.90
35491;DHT22;21605;52.068;20.806;2023-11-18T02:07:43;2.60;99.90
35491;DHT22;21605;52.068;20.806;2023-11-18T02:10:09;2.50;99.90
35491;DHT22;21605;52.068;20.806;2023-11-18T02:12:43;2.60;99.90
35491;DHT22;21605;52.068;20.806;2023-11-18T02:15:10;2.50;99.90
35491;DHT22;21605;52.068;20.806;2023-11-18T02:17:38;2.60;99.90
35491;DHT22;21605;52.068;20.806;2023-11-18T02:20:07;2.50;99.90
35491;DHT22;21605;52.068;20.806;2023-11-18T02:22:42;2.50;99.90
35491;DHT22;21605;52.068;20.806;2023-11-18T02:25:09;2.50;99.90
35491;DHT22;21605;52.068;20.806;2023-11-18T02:27:37;2.50;99.90
35491;DHT22;21605;52.068;20.806;2023-11-18T02:30:03;2.50;99.90
35491;DHT22;21605;52.068;20.806;2023-11-18T02:32:33;2.50;99.90
35491;DHT22;21605;52.068;20.806;2023-11-18T02:35:10;2.50;99.90
35491;DHT22;21605;52.068;20.806;2023-11-18T02:37:39;2.50;99.90
35491;DHT22;21605;52.068;20.806;2023-11-18T02:40:08;2.50;99.90
35491;DHT22;21605;52.068;20.806;2023-11-18T02:42:40;2.50;99.90
35491;DHT22;21605;52.068;20.806;2023-11-18T02:45:09;2.60;99.90
35491;DHT22;21605;52.068;20.806;2023-11-18T02:47:37;2.50;99.90
35491;DHT22;21605;52.068;20.806;2023-11-18T02:50:05;2.50;99.90
35491;DHT22;21605;52.068;20.806;2023-11-18T02:52:36;2.60;99.90
35491;DHT22;21605;52.068;20.806;2023-11-18T02:55:06;2.50;99.90
35491;DHT22;21605;52.068;20.806;2023-11-18T02:57:33;2.50;99.90
35491;DHT22;21605;52.068;20.806;2023-11-18T02:59:59;2.60;99.90
35491;DHT22;21605;52.068;20.806;2023-11-18T03:02:26;2.50;99.90
35491;DHT22;21605;52.068;20.806;2023-11-18T03:04:57;2.60;99.90
35491;DHT22;21605;52.068;20.806;2023-11-18T03:07:22;2.60;99.90
35491;DHT22;21605;52.068;20.806;2023-11-18T03:09:48;2.60;99.90
35491;DHT22;21605;52.068;20.806;2023-11-18T03:12:13;2.60;99.90
35491;DHT22;21605;52.068;20.806;2023-11-18T03:14:39;2.60;99.90
35491;DHT22;21605;52.068;20.806;2023-11-18T03:17:05;2.60;99.90
35491;DHT22;21605;52.068;20.806;2023-11-18T03:19:35;2.60;99.90
35491;DHT22;21605;52.068;20.806;2023-11-18T03:22:01;2.50;99.90
35491;DHT22;21605;52.068;20.806;2023-11-18T03:24:27;2.60;99.90
35491;DHT22;21605;52.068;20.806;2023-11-18T03:26:56;2.60;99.90
35491;DHT22;21605;52.068;20.806;2023-11-18T03:29:22;2.60;99.90
35491;DHT22;21605;52.068;20.806;2023-11-18T03:31:49;2.60;99.90
35491;DHT22;21605;52.068;20.806;2023-11-18T03:34:16;2.60;99.90
35491;DHT22;21605;52.068;20.806;2023-11-18T03:36:44;2.50;99.90
35491;DHT22;21605;52.068;20.806;2023-11-18T03:39:10;2.50;99.90
35491;DHT22;21605;52.068;20.806;2023-11-18T03:41:36;2.60;99.90
35491;DHT22;21605;52.068;20.806;2023-11-18T03:44:04;2.60;99.90
35491;DHT22;21605;52.068;20.806;2023-11-18T03:46:30;2.60;99.90
35491;DHT22;21605;52.068;20.806;2023-11-18T03:49:02;2.60;99.90
35491;DHT22;21605;52.068;20.806;2023-11-18T03:51:28;2.60;99.90
35491;DHT22;21605;52.068;20.806;2023-11-18T03:53:54;2.60;99.90
35491;DHT22;21605;52.068;20.806;2023-11-18T03:56:20;2.60;99.90
35491;DHT22;21605;52.068;20.806;2023-11-18T03:58:46;2.60;99.90
35491;DHT22;21605;52.068;20.806;2023-11-18T04:01:24;2.60;99.90
35491;DHT22;21605;52.068;20.806;2023-11-18T04:03:53;2.60;99.90
35491;DHT22;21605;52.068;20.806;2023-11-18T04:06:20;2.60;99.90
35491;DHT22;21605;52.068;20.806;2023-11-18T04:08:47;2.60;99.90
35491;DHT22;21605;52.068;20.806;2023-11-18T04:11:16;2.60;99.90
35491;DHT22;21605;52.068;20.806;2023-11-18T04:13:43;2.60;99.90
35491;DHT22;21605;52.068;20.806;2023-11-18T04:16:15;2.60;99.90
35491;DHT22;21605;52.068;20.806;2023-11-18T04:18:42;2.60;99.90
35491;DHT22;21605;52.068;20.806;2023-11-18T04:21:11;2.50;99.90
35491;DHT22;21605;52.068;20.806;2023-11-18T04:23:39;2.50;99.90
35491;DHT22;21605;52.068;20.806;2023-11-18T04:26:05;2.60;99.90
35491;DHT22;21605;52.068;20.806;2023-11-18T04:28:31;2.50;99.90
35491;DHT22;21605;52.068;20.806;2023-11-18T04:30:57;2.50;99.90
35491;DHT22;21605;52.068;20.806;2023-11-18T04:33:22;2.60;99.90
35491;DHT22;21605;52.068;20.806;2023-11-18T04:35:51;2.60;99.90
35491;DHT22;21605;52.068;20.806;2023-11-18T04:38:17;2.60;99.90
35491;DHT22;21605;52.068;20.806;2023-11-18T04:40:43;2.50;99.90
35491;DHT22;21605;52.068;20.806;2023-11-18T04:43:11;2.60;99.90
35491;DHT22;21605;52.068;20.806;2023-11-18T04:45:37;2.60;99.90
35491;DHT22;21605;52.068;20.806;2023-11-18T04:48:04;2.50;99.90
35491;DHT22;21605;52.068;20.806;2023-11-18T04:50:30;2.50;99.90
35491;DHT22;21605;52.068;20.806;2023-11-18T04:52:57;2.60;99.90
35491;DHT22;21605;52.068;20.806;2023-11-18T04:55:22;2.50;99.90
35491;DHT22;21605;52.068;20.806;2023-11-18T04:57:48;2.50;99.90
35491;DHT22;21605;52.068;20.806;2023-11-18T05:00:14;2.50;99.90
35491;DHT22;21605;52.068;20.806;2023-11-18T05:02:43;2.50;99.90
35491;DHT22;21605;52.068;20.806;2023-11-18T05:05:11;2.50;99.90
35491;DHT22;21605;52.068;20.806;2023-11-18T05:07:39;2.60;99.90
35491;DHT22;21605;52.068;20.806;2023-11-18T05:10:06;2.50;99.90
35491;DHT22;21605;52.068;20.806;2023-11-18T05:12:33;2.60;99.90
35491;DHT22;21605;52.068;20.806;2023-11-18T05:14:59;2.50;99.90
35491;DHT22;21605;52.068;20.806;2023-11-18T05:17:26;2.50;99.90
35491;DHT22;21605;52.068;20.806;2023-11-18T05:19:52;2.60;99.90
35491;DHT22;21605;52.068;20.806;2023-11-18T05:22:19;2.50;99.90
35491;DHT22;21605;52.068;20.806;2023-11-18T05:24:46;2.50;99.90
35491;DHT22;21605;52.068;20.806;2023-11-18T05:27:11;2.50;99.90
35491;DHT22;21605;52.068;20.806;2023-11-18T05:29:37;2.50;99.90
35491;DHT22;21605;52.068;20.806;2023-11-18T05:32:04;2.50;99.90
35491;DHT22;21605;52.068;20.806;2023-11-18T05:34:29;2.50;99.90
35491;DHT22;21605;52.068;20.806;2023-11-18T05:36:55;2.50;99.90
35491;DHT22;21605;52.068;20.806;2023-11-18T05:39:22;2.50;99.90
35491;DHT22;21605;52.068;20.806;2023-11-18T05:41:50;2.50;99.90
35491;DHT22;21605;52.068;20.806;2023-11-18T05:44:16;2.50;99.90
35491;DHT22;21605;52.068;20.806;2023-11-18T05:46:48;2.50;99.90
35491;DHT22;21605;52.068;20.806;2023-11-18T05:49:17;2.50;99.90
35491;DHT22;21605;52.068;20.806;2023-11-18T05:51:43;2.50;99.90
35491;DHT22;21605;52.068;20.806;2023-11-18T05:54:10;2.50;99.90
35491;DHT22;21605;52.068;20.806;2023-11-18T05:56:36;2.50;99.90
35491;DHT22;21605;52.068;20.806;2023-11-18T05:59:02;2.50;99.90
35491;DHT22;21605;52.068;20.806;2023-11-18T06:01:31;2.50;99.90
35491;DHT22;21605;52.068;20.806;2023-11-18T06:03:57;2.50;99.90
35491;DHT22;21605;52.068;20.806;2023-11-18T06:06:23;2.50;99.90
35491;DHT22;21605;52.068;20.806;2023-11-18T06:08:49;2.40;99.90
35491;DHT22;21605;52.068;20.806;2023-11-18T06:11:15;2.50;99.90
35491;DHT22;21605;52.068;20.806;2023-11-18T06:13:49;2.50;99.90
35491;DHT22;21605;52.068;20.806;2023-11-18T06:16:17;2.50;99.90
35491;DHT22;21605;52.068;20.806;2023-11-18T06:18:46;2.50;99.90
35491;DHT22;21605;52.068;20.806;2023-11-18T06:21:19;2.50;99.90
35491;DHT22;21605;52.068;20.806;2023-11-18T06:23:46;2.40;99.90
35491;DHT22;21605;52.068;20.806;2023-11-18T06:26:13;2.40;99.90
35491;DHT22;21605;52.068;20.806;2023-11-18T06:28:43;2.40;99.90
35491;DHT22;21605;52.068;20.806;2023-11-18T06:31:10;2.50;99.90
35491;DHT22;21605;52.068;20.806;2023-11-18T06:38:45;2.40;99.90
35491;DHT22;21605;52.068;20.806;2023-11-18T06:41:11;2.40;99.90
35491;DHT22;21605;52.068;20.806;2023-11-18T06:43:43;2.40;99.90
35491;DHT22;21605;52.068;20.806;2023-11-18T06:46:18;2.40;99.90
35491;DHT22;21605;52.068;20.806;2023-11-18T06:48:47;2.50;99.90
35491;DHT22;21605;52.068;20.806;2023-11-18T06:51:13;2.40;99.90
35491;DHT22;21605;52.068;20.806;2023-11-18T06:53:40;2.40;99.90
35491;DHT22;21605;52.068;20.806;2023-11-18T06:56:06;2.40;99.90
35491;DHT22;21605;52.068;20.806;2023-11-18T06:58:32;2.40;99.90
35491;DHT22;21605;52.068;20.806;2023-11-18T07:00:59;2.40;99.90
35491;DHT22;21605;52.068;20.806;2023-11-18T07:03:24;2.40;99.90
35491;DHT22;21605;52.068;20.806;2023-11-18T07:05:51;2.40;99.90
35491;DHT22;21605;52.068;20.806;2023-11-18T07:08:16;2.40;99.90
35491;DHT22;21605;52.068;20.806;2023-11-18T07:10:42;2.50;99.90
35491;DHT22;21605;52.068;20.806;2023-11-18T07:13:08;2.40;99.90
35491;DHT22;21605;52.068;20.806;2023-11-18T07:15:34;2.50;99.90
35491;DHT22;21605;52.068;20.806;2023-11-18T07:18:01;2.50;99.90
35491;DHT22;21605;52.068;20.806;2023-11-18T07:20:27;2.50;99.90
35491;DHT22;21605;52.068;20.806;2023-11-18T07:22:53;2.50;99.90
35491;DHT22;21605;52.068;20.806;2023-11-18T07:25:19;2.50;99.90
35491;DHT22;21605;52.068;20.806;2023-11-18T07:27:45;2.50;99.90
35491;DHT22;21605;52.068;20.806;2023-11-18T07:30:11;2.50;99.90
35491;DHT22;21605;52.068;20.806;2023-11-18T07:32:37;2.50;99.90
35491;DHT22;21605;52.068;20.806;2023-11-18T07:35:04;2.50;99.90
35491;DHT22;21605;52.068;20.806;2023-11-18T07:37:34;2.50;99.90
35491;DHT22;21605;52.068;20.806;2023-11-18T07:40:00;2.50;99.90
35491;DHT22;21605;52.068;20.806;2023-11-18T07:42:26;2.60;99.90
35491;DHT22;21605;52.068;20.806;2023-11-18T07:44:52;2.50;99.90
35491;DHT22;21605;52.068;20.806;2023-11-18T07:47:17;2.50;99.90
35491;DHT22;21605;52.068;20.806;2023-11-18T07:49:45;2.50;99.90
35491;DHT22;21605;52.068;20.806;2023-11-18T07:52:11;2.50;99.90
35491;DHT22;21605;52.068;20.806;2023-11-18T07:54:36;2.60;99.90
35491;DHT22;21605;52.068;20.806;2023-11-18T07:57:03;2.50;99.90
35491;DHT22;21605;52.068;20.806;2023-11-18T07:59:30;2.50;99.90
35491;DHT22;21605;52.068;20.806;2023-11-18T08:01:57;2.50;99.90
35491;DHT22;21605;52.068;20.806;2023-11-18T08:04:23;2.50;99.90
35491;DHT22;21605;52.068;20.806;2023-11-18T08:06:49;2.50;99.90
35491;DHT22;21605;52.068;20.806;2023-11-18T08:09:15;2.60;99.90
35491;DHT22;21605;52.068;20.806;2023-11-18T08:11:47;2.60;99.90
35491;DHT22;21605;52.068;20.806;2023-11-18T08:14:13;2.60;99.90
35491;DHT22;21605;52.068;20.806;2023-11-18T08:16:38;2.60;99.90
35491;DHT22;21605;52.068;20.806;2023-11-18T08:19:04;2.60;99.90
35491;DHT22;21605;52.068;20.806;2023-11-18T08:21:36;2.60;99.90
35491;DHT22;21605;52.068;20.806;2023-11-18T08:24:07;2.60;99.90
35491;DHT22;21605;52.068;20.806;2023-11-18T08:26:34;2.60;99.90
35491;DHT22;21605;52.068;20.806;2023-11-18T08:29:00;2.60;99.90
35491;DHT22;21605;52.068;20.806;2023-11-18T08:31:26;2.60;99.90
35491;DHT22;21605;52.068;20.806;2023-11-18T08:33:52;2.60;99.90
35491;DHT22;21605;52.068;20.806;2023-11-18T08:36:20;2.60;99.90
35491;DHT22;21605;52.068;20.806;2023-11-18T08:38:48;2.60;99.90
35491;DHT22;21605;52.068;20.806;2023-11-18T08:41:13;2.60;99.90
35491;DHT22;21605;52.068;20.806;2023-11-18T08:43:39;2.60;99.90
35491;DHT22;21605;52.068;20.806;2023-11-18T08:46:06;2.60;99.90
35491;DHT22;21605;52.068;20.806;2023-11-18T08:48:33;2.60;99.90
35491;DHT22;21605;52.068;20.806;2023-11-18T08:51:01;2.60;99.90
35491;DHT22;21605;52.068;20.806;2023-11-18T08:53:27;2.60;99.90
35491;DHT22;21605;52.068;20.806;2023-11-18T08:55:53;2.70;99.90
35491;DHT22;21605;52.068;20.806;2023-11-18T08:58:22;2.70;99.90
35491;DHT22;21605;52.068;20.806;2023-11-18T09:00:52;2.70;99.90
35491;DHT22;21605;52.068;20.806;2023-11-18T09:03:23;2.70;99.90
35491;DHT22;21605;52.068;20.806;2023-11-18T09:06:05;2.70;99.90
35491;DHT22;21605;52.068;20.806;2023-11-18T09:08:38;2.60;99.90
35491;DHT22;21605;52.068;20.806;2023-11-18T09:11:08;2.70;99.90
35491;DHT22;21605;52.068;20.806;2023-11-18T09:13:37;2.70;99.90
35491;DHT22;21605;52.068;20.806;2023-11-18T09:16:06;2.60;99.90
35491;DHT22;21605;52.068;20.806;2023-11-18T09:18:37;2.70;99.90
35491;DHT22;21605;52.068;20.806;2023-11-18T09:21:05;2.70;99.90
35491;DHT22;21605;52.068;20.806;2023-11-18T09:23:33;2.70;99.90
35491;DHT22;21605;52.068;20.806;2023-11-18T09:26:03;2.70;99.90
35491;DHT22;21605;52.068;20.806;2023-11-18T09:28:33;2.70;99.90
35491;DHT22;21605;52.068;20.806;2023-11-18T09:31:01;2.70;99.90
35491;DHT22;21605;52.068;20.806;2023-11-18T09:33:30;2.70;99.90
35491;DHT22;21605;52.068;20.806;2023-11-18T09:36:03;2.70;99.90
35491;DHT22;21605;52.068;20.806;2023-11-18T09:38:33;2.70;99.90
35491;DHT22;21605;52.068;20.806;2023-11-18T09:41:01;2.70;99.90
35491;DHT22;21605;52.068;20.806;2023-11-18T09:43:31;2.70;99.90
35491;DHT22;21605;52.068;20.806;2023-11-18T09:46:16;2.70;99.90
35491;DHT22;21605;52.068;20.806;2023-11-18T09:48:47;2.70;99.90
35491;DHT22;21605;52.068;20.806;2023-11-18T09:51:22;2.80;99.90
35491;DHT22;21605;52.068;20.806;2023-11-18T09:53:53;2.80;99.90
35491;DHT22;21605;52.068;20.806;2023-11-18T09:59:30;2.80;99.90
35491;DHT22;21605;52.068;20.806;2023-11-18T10:01:57;2.80;99.90
35491;DHT22;21605;52.068;20.806;2023-11-18T10:04:23;2.80;99.90
35491;DHT22;21605;52.068;20.806;2023-11-18T10:06:53;2.80;99.90
35491;DHT22;21605;52.068;20.806;2023-11-18T10:09:19;2.80;99.90
35491;DHT22;21605;52.068;20.806;2023-11-18T10:11:54;2.80;99.90
35491;DHT22;21605;52.068;20.806;2023-11-18T10:14:32;2.80;99.90
35491;DHT22;21605;52.068;20.806;2023-11-18T10:16:57;2.80;99.90
35491;DHT22;21605;52.068;20.806;2023-11-18T10:19:23;2.90;99.90
35491;DHT22;21605;52.068;20.806;2023-11-18T10:21:51;2.80;99.90
35491;DHT22;21605;52.068;20.806;2023-11-18T10:24:17;2.90;99.90
35491;DHT22;21605;52.068;20.806;2023-11-18T10:26:55;2.90;99.90
35491;DHT22;21605;52.068;20.806;2023-11-18T10:29:26;2.90;99.90
35491;DHT22;21605;52.068;20.806;2023-11-18T10:32:05;2.60;99.90
35491;DHT22;21605;52.068;20.806;2023-11-18T10:34:34;2.90;99.90
35491;DHT22;21605;52.068;20.806;2023-11-18T10:37:01;2.90;99.90
35491;DHT22;21605;52.068;20.806;2023-11-18T10:39:29;2.90;99.90
35491;DHT22;21605;52.068;20.806;2023-11-18T10:41:59;2.90;99.90
35491;DHT22;21605;52.068;20.806;2023-11-18T10:44:25;2.90;99.90
35491;DHT22;21605;52.068;20.806;2023-11-18T10:46:52;2.90;99.90
35491;DHT22;21605;52.068;20.806;2023-11-18T10:49:19;2.90;99.90
35491;DHT22;21605;52.068;20.806;2023-11-18T10:51:46;2.90;99.90
35491;DHT22;21605;52.068;20.806;2023-11-18T10:54:13;2.90;99.90
35491;DHT22;21605;52.068;20.806;2023-11-18T10:56:51;2.90;99.90
35491;DHT22;21605;52.068;20.806;2023-11-18T10:59:22;2.90;99.90
35491;DHT22;21605;52.068;20.806;2023-11-18T11:01:48;2.90;99.90
35491;DHT22;21605;52.068;20.806;2023-11-18T11:04:15;2.90;99.90
35491;DHT22;21605;52.068;20.806;2023-11-18T11:06:50;2.90;99.90
35491;DHT22;21605;52.068;20.806;2023-11-18T11:09:23;2.90;99.90
35491;DHT22;21605;52.068;20.806;2023-11-18T11:12:04;2.90;99.90
35491;DHT22;21605;52.068;20.806;2023-11-18T11:14:45;2.90;99.90
35491;DHT22;21605;52.068;20.806;2023-11-18T11:17:16;2.90;99.90
35491;DHT22;21605;52.068;20.806;2023-11-18T11:19:55;3.00;99.90
35491;DHT22;21605;52.068;20.806;2023-11-18T11:22:56;3.00;99.90
35491;DHT22;21605;52.068;20.806;2023-11-18T11:28:19;3.00;99.90
35491;DHT22;21605;52.068;20.806;2023-11-18T11:30:55;3.00;99.90
35491;DHT22;21605;52.068;20.806;2023-11-18T11:33:33;3.00;99.90
35491;DHT22;21605;52.068;20.806;2023-11-18T11:36:11;3.10;99.90
35491;DHT22;21605;52.068;20.806;2023-11-18T11:38:38;3.10;99.90
35491;DHT22;21605;52.068;20.806;2023-11-18T11:41:04;3.10;99.90
35491;DHT22;21605;52.068;20.806;2023-11-18T11:43:31;3.10;99.90
35491;DHT22;21605;52.068;20.806;2023-11-18T11:46:03;3.00;99.90
35491;DHT22;21605;52.068;20.806;2023-11-18T11:48:36;3.00;99.90
35491;DHT22;21605;52.068;20.806;2023-11-18T11:53:36;3.10;99.90
35491;DHT22;21605;52.068;20.806;2023-11-18T11:56:11;3.10;99.90
35491;DHT22;21605;52.068;20.806;2023-11-18T11:58:41;3.10;99.90
35491;DHT22;21605;52.068;20.806;2023-11-18T12:01:27;3.10;99.90
35491;DHT22;21605;52.068;20.806;2023-11-18T12:03:59;3.10;99.90
35491;DHT22;21605;52.068;20.806;2023-11-18T12:06:32;3.10;99.90
35491;DHT22;21605;52.068;20.806;2023-11-18T12:09:00;3.10;99.90
35491;DHT22;21605;52.068;20.806;2023-11-18T12:11:34;3.10;99.90
35491;DHT22;21605;52.068;20.806;2023-11-18T12:14:04;3.00;99.90
35491;DHT22;21605;52.068;20.806;2023-11-18T12:17:04;3.10;99.90
35491;DHT22;21605;52.068;20.806;2023-11-18T12:19:36;3.00;99.90
35491;DHT22;21605;52.068;20.806;2023-11-18T12:22:12;3.10;99.90
35491;DHT22;21605;52.068;20.806;2023-11-18T12:25:29;3.10;99.90
35491;DHT22;21605;52.068;20.806;2023-11-18T12:33:05;3.00;99.90
35491;DHT22;21605;52.068;20.806;2023-11-18T12:41:35;3.00;99.90
35491;DHT22;21605;52.068;20.806;2023-11-18T12:47:00;3.00;99.90
35491;DHT22;21605;52.068;20.806;2023-11-18T12:49:44;3.00;99.90
35491;DHT22;21605;52.068;20.806;2023-11-18T12:52:16;3.00;99.90
35491;DHT22;21605;52.068;20.806;2023-11-18T12:54:44;3.00;99.90
35491;DHT22;21605;52.068;20.806;2023-11-18T12:57:10;3.00;99.90
35491;DHT22;21605;52.068;20.806;2023-11-18T12:59:39;3.00;99.90
35491;DHT22;21605;52.068;20.806;2023-11-18T13:02:11;2.90;99.90
35491;DHT22;21605;52.068;20.806;2023-11-18T13:04:46;3.00;99.90
35491;DHT22;21605;52.068;20.806;2023-11-18T13:07:18;3.00;99.90
35491;DHT22;21605;52.068;20.806;2023-11-18T13:09:44;2.90;99.90
35491;DHT22;21605;52.068;20.806;2023-11-18T13:12:12;2.90;99.90
35491;DHT22;21605;52.068;20.806;2023-11-18T13:14:41;2.90;99.90
35491;DHT22;21605;52.068;20.806;2023-11-18T13:17:12;2.90;99.90
35491;DHT22;21605;52.068;20.806;2023-11-18T13:19:39;2.90;99.90
35491;DHT22;21605;52.068;20.806;2023-11-18T13:22:06;4.90;99.90
35491;DHT22;21605;52.068;20.806;2023-11-18T13:24:40;2.90;99.90
35491;DHT22;21605;52.068;20.806;2023-11-18T13:27:07;2.80;99.90
35491;DHT22;21605;52.068;20.806;2023-11-18T13:29:35;2.90;99.90
35491;DHT22;21605;52.068;20.806;2023-11-18T13:32:01;2.80;99.90
35491;DHT22;21605;52.068;20.806;2023-11-18T13:34:31;2.80;99.90
35491;DHT22;21605;52.068;20.806;2023-11-18T13:37:03;2.80;99.90
35491;DHT22;21605;52.068;20.806;2023-11-18T13:39:29;2.80;99.90
35491;DHT22;21605;52.068;20.806;2023-11-18T13:41:57;2.80;99.90
35491;DHT22;21605;52.068;20.806;2023-11-18T13:44:36;2.80;99.90
35491;DHT22;21605;52.068;20.806;2023-11-18T13:47:07;2.80;99.90
35491;DHT22;21605;52.068;20.806;2023-11-18T13:49:33;2.80;99.90
35491;DHT22;21605;52.068;20.806;2023-11-18T13:52:02;2.80;99.90
35491;DHT22;21605;52.068;20.806;2023-11-18T13:54:29;2.70;99.90
35491;DHT22;21605;52.068;20.806;2023-11-18T13:57:04;2.70;99.90
35491;DHT22;21605;52.068;20.806;2023-11-18T13:59:31;2.70;99.90
35491;DHT22;21605;52.068;20.806;2023-11-18T14:01:58;2.70;99.90
35491;DHT22;21605;52.068;20.806;2023-11-18T14:04:28;2.60;99.90
35491;DHT22;21605;52.068;20.806;2023-11-18T14:06:58;2.60;99.90
35491;DHT22;21605;52.068;20.806;2023-11-18T14:09:25;2.60;99.90
35491;DHT22;21605;52.068;20.806;2023-11-18T14:11:52;2.60;99.90
35491;DHT22;21605;52.068;20.806;2023-11-18T14:14:21;2.60;99.90
35491;DHT22;21605;52.068;20.806;2023-11-18T14:16:46;2.60;99.90
35491;DHT22;21605;52.068;20.806;2023-11-18T14:19:12;2.60;99.90
35491;DHT22;21605;52.068;20.806;2023-11-18T14:21:42;2.60;99.90
35491;DHT22;21605;52.068;20.806;2023-11-18T14:24:08;2.60;99.90
35491;DHT22;21605;52.068;20.806;2023-11-18T14:26:36;2.60;99.90
35491;DHT22;21605;52.068;20.806;2023-11-18T14:29:02;2.60;99.90
35491;DHT22;21605;52.068;20.806;2023-11-18T14:31:28;2.50;99.90
35491;DHT22;21605;52.068;20.806;2023-11-18T14:33:54;2.50;99.90
35491;DHT22;21605;52.068;20.806;2023-11-18T14:36:26;2.50;99.90
35491;DHT22;21605;52.068;20.806;2023-11-18T14:38:52;2.50;99.90
35491;DHT22;21605;52.068;20.806;2023-11-18T14:41:18;2.50;99.90
35491;DHT22;21605;52.068;20.806;2023-11-18T14:43:45;2.50;99.90
35491;DHT22;21605;52.068;20.806;2023-11-18T14:46:11;2.40;99.90
35491;DHT22;21605;52.068;20.806;2023-11-18T14:48:38;2.50;99.90
35491;DHT22;21605;52.068;20.806;2023-11-18T14:51:04;2.40;99.90
35491;DHT22;21605;52.068;20.806;2023-11-18T14:53:30;2.50;99.90
35491;DHT22;21605;52.068;20.806;2023-11-18T14:55:56;2.40;99.90
35491;DHT22;21605;52.068;20.806;2023-11-18T14:58:23;2.50;99.90
35491;DHT22;21605;52.068;20.806;2023-11-18T15:00:49;2.40;99.90
35491;DHT22;21605;52.068;20.806;2023-11-18T15:03:14;2.40;99.90
35491;DHT22;21605;52.068;20.806;2023-11-18T15:05:42;2.40;99.90
35491;DHT22;21605;52.068;20.806;2023-11-18T15:08:09;2.40;99.90
35491;DHT22;21605;52.068;20.806;2023-11-18T15:10:35;2.40;99.90
35491;DHT22;21605;52.068;20.806;2023-11-18T15:13:05;2.40;99.90
35491;DHT22;21605;52.068;20.806;2023-11-18T15:15:31;2.40;99.90
35491;DHT22;21605;52.068;20.806;2023-11-18T15:18:02;2.30;99.90
35491;DHT22;21605;52.068;20.806;2023-11-18T15:20:34;2.30;99.90
35491;DHT22;21605;52.068;20.806;2023-11-18T15:23:01;2.30;99.90
35491;DHT22;21605;52.068;20.806;2023-11-18T15:25:27;2.30;99.90
35491;DHT22;21605;52.068;20.806;2023-11-18T15:27:53;2.30;99.90
35491;DHT22;21605;52.068;20.806;2023-11-18T15:30:18;2.30;99.90
35491;DHT22;21605;52.068;20.806;2023-11-18T15:32:45;2.30;99.90
35491;DHT22;21605;52.068;20.806;2023-11-18T15:35:12;2.30;99.90
35491;DHT22;21605;52.068;20.806;2023-11-18T15:37:40;2.30;99.90
35491;DHT22;21605;52.068;20.806;2023-11-18T15:40:16;2.30;99.90
35491;DHT22;21605;52.068;20.806;2023-11-18T15:42:47;2.30;99.90
35491;DHT22;21605;52.068;20.806;2023-11-18T15:45:20;2.30;99.90
35491;DHT22;21605;52.068;20.806;2023-11-18T15:47:47;2.30;99.90
35491;DHT22;21605;52.068;20.806;2023-11-18T15:50:14;2.30;99.90
35491;DHT22;21605;52.068;20.806;2023-11-18T15:52:48;2.30;99.90
35491;DHT22;21605;52.068;20.806;2023-11-18T15:55:15;2.30;99.90
35491;DHT22;21605;52.068;20.806;2023-11-18T15:57:43;2.30;99.90
35491;DHT22;21605;52.068;20.806;2023-11-18T16:00:10;2.30;99.90
35491;DHT22;21605;52.068;20.806;2023-11-18T16:02:43;2.30;99.90
35491;DHT22;21605;52.068;20.806;2023-11-18T16:05:11;2.30;99.90